Time;durP1;ratioP1;P1;durP2;ratioP2;P2;SDS_P1;SDS_P2;PMS_P1;PMS_P2;Temp;Humidity;BMP_temperature;BMP_pressure;BME280_temperature;BME280_humidity;BME280_pressure;Samples;Min_cycle;Max_cycle;Signal;HPM_P1;HPM_P2
2022/05/03 00:00:04;;;;;;;16.98;10.45;;;8.00;99.90;;;;;;4992952;28;20019;-85
2022/05/03 00:02:47;;;;;;;18.67;10.98;;;8.10;99.90;;;;;;4987145;28;20038;-86
2022/05/03 00:05:53;;;;;;;17.80;10.52;;;8.00;99.90;;;;;;4958365;28;20066;-85
2022/05/03 00:08:38;;;;;;;18.15;11.88;;;7.90;99.90;;;;;;4979469;28;20037;-85
2022/05/03 00:11:29;;;;;;;20.73;13.45;;;7.90;99.90;;;;;;4973700;28;20038;-86
2022/05/03 00:14:05;;;;;;;17.30;12.07;;;7.80;99.90;;;;;;4973109;28;20105;-85
2022/05/03 00:16:34;;;;;;;18.90;12.68;;;7.90;99.90;;;;;;4974090;28;20026;-85
2022/05/03 00:19:05;;;;;;;20.73;14.23;;;7.80;99.90;;;;;;4968928;28;20541;-85
2022/05/03 00:21:33;;;;;;;22.40;13.75;;;7.80;99.90;;;;;;4987499;28;20054;-85
2022/05/03 00:23:59;;;;;;;21.65;12.02;;;7.80;99.90;;;;;;4952608;29;20056;-85
2022/05/03 00:26:28;;;;;;;24.35;13.98;;;7.80;99.90;;;;;;4954346;28;20027;-85
2022/05/03 00:28:55;;;;;;;21.33;12.85;;;7.90;99.90;;;;;;4972515;28;20037;-85
2022/05/03 00:31:23;;;;;;;23.10;13.98;;;7.90;99.90;;;;;;4972507;28;20496;-85
2022/05/03 00:33:49;;;;;;;20.00;13.15;;;7.90;99.90;;;;;;4973160;28;20106;-85
2022/05/03 00:36:15;;;;;;;21.42;13.50;;;8.00;99.90;;;;;;4971699;28;20034;-85
2022/05/03 00:38:41;;;;;;;19.35;12.15;;;7.90;99.90;;;;;;4972304;28;20148;-85
2022/05/03 00:41:10;;;;;;;19.98;13.30;;;7.80;99.90;;;;;;4989677;28;20023;-86
2022/05/03 00:47:15;;;;;;;17.70;11.90;;;7.70;99.90;;;;;;4967517;28;20053;-85
2022/05/03 00:49:52;;;;;;;19.23;13.18;;;7.50;99.90;;;;;;4973156;28;20031;-85
2022/05/03 00:52:29;;;;;;;23.13;13.73;;;7.50;99.90;;;;;;4972952;28;20035;-85
2022/05/03 00:55:12;;;;;;;19.20;13.23;;;7.50;99.90;;;;;;4961720;28;20054;-85
2022/05/03 00:58:02;;;;;;;22.67;14.57;;;7.40;99.90;;;;;;4954084;28;20034;-85
2022/05/03 01:00:30;;;;;;;22.10;14.10;;;7.40;99.90;;;;;;4967304;28;20423;-85
2022/05/03 01:03:19;;;;;;;22.48;14.02;;;7.40;99.90;;;;;;4992887;28;20033;-85
2022/05/03 01:06:08;;;;;;;21.25;13.13;;;7.40;99.90;;;;;;5005865;28;20189;-85
2022/05/03 01:08:55;;;;;;;20.08;13.23;;;7.30;99.90;;;;;;5011244;28;20052;-85
2022/05/03 01:11:33;;;;;;;19.90;14.15;;;7.30;99.90;;;;;;4981152;28;20034;-85
2022/05/03 01:14:20;;;;;;;20.85;13.63;;;7.20;99.90;;;;;;4993544;28;20493;-85
2022/05/03 01:16:59;;;;;;;20.50;13.90;;;7.10;99.90;;;;;;4980555;28;20037;-84
2022/05/03 01:19:40;;;;;;;23.45;13.20;;;7.10;99.90;;;;;;4974290;28;20086;-85
2022/05/03 01:22:26;;;;;;;22.08;14.88;;;7.20;99.90;;;;;;4994842;28;20029;-85
2022/05/03 01:24:57;;;;;;;19.15;12.70;;;7.10;99.90;;;;;;4982940;28;20041;-85
2022/05/03 01:27:48;;;;;;;22.05;13.77;;;7.10;99.90;;;;;;4999323;28;20077;-85
2022/05/03 01:30:14;;;;;;;;;;;7.00;99.90;;;;;;4998379;28;20017;-85
2022/05/03 01:32:43;;;;;;;17.20;11.82;;;7.00;99.90;;;;;;4990750;28;19909;-85
2022/05/03 01:35:13;;;;;;;18.48;12.15;;;7.00;99.90;;;;;;4991290;28;20366;-85
2022/05/03 01:38:06;;;;;;;19.05;11.98;;;6.90;99.90;;;;;;4989837;28;20112;-85
2022/05/03 01:40:51;;;;;;;20.60;13.20;;;6.90;99.90;;;;;;4981213;28;20034;-85
2022/05/03 01:43:54;;;;;;;19.00;12.10;;;6.90;99.90;;;;;;4972041;28;20049;-85
2022/05/03 01:46:27;;;;;;;20.17;12.50;;;6.80;99.90;;;;;;4992960;28;20180;-85
2022/05/03 01:52:26;;;;;;;22.10;14.55;;;6.70;99.90;;;;;;4986671;28;20084;-85
2022/05/03 01:55:13;;;;;;;23.05;14.35;;;6.70;99.90;;;;;;4997651;28;20112;-85
2022/05/03 01:57:53;;;;;;;22.85;13.65;;;6.60;99.90;;;;;;4982945;28;20033;-85
2022/05/03 02:00:22;;;;;;;24.77;15.07;;;6.60;99.90;;;;;;4980404;28;20072;-85
2022/05/03 02:03:07;;;;;;;22.23;15.50;;;6.60;99.90;;;;;;4991650;28;20493;-85
2022/05/03 02:06:03;;;;;;;28.60;16.13;;;6.70;99.90;;;;;;4996828;28;20034;-84
2022/05/03 02:08:59;;;;;;;28.08;17.48;;;6.60;99.90;;;;;;4984617;28;20038;-85
2022/05/03 02:11:44;;;;;;;24.42;15.38;;;6.60;99.90;;;;;;4978903;28;20042;-85
2022/05/03 02:17:31;;;;;;;28.10;15.32;;;6.50;99.90;;;;;;4977355;28;20440;-85
2022/05/03 02:20:30;;;;;;;27.52;16.58;;;6.50;99.90;;;;;;4988187;28;20054;-85
2022/05/03 02:23:17;;;;;;;21.30;14.85;;;6.50;99.90;;;;;;5002327;28;20031;-85
2022/05/03 02:26:17;;;;;;;24.10;16.08;;;6.40;99.90;;;;;;4994429;28;20409;-85
2022/05/03 02:28:47;;;;;;;21.27;12.73;;;6.30;99.90;;;;;;5002077;28;20037;-85
2022/05/03 02:31:18;;;;;;;29.60;17.15;;;6.30;99.90;;;;;;4997986;28;20022;-84
2022/05/03 02:33:58;;;;;;;29.05;17.38;;;6.30;99.90;;;;;;4989283;28;20034;-85
2022/05/03 02:36:25;;;;;;;23.23;14.00;;;6.40;99.90;;;;;;4986141;28;20366;-85
2022/05/03 02:38:59;;;;;;;22.73;15.38;;;6.50;99.90;;;;;;5004182;28;20030;-85
2022/05/03 02:41:26;;;;;;;24.23;14.50;;;6.40;99.90;;;;;;4986219;28;20101;-85
2022/05/03 02:43:55;;;;;;;23.83;15.75;;;6.30;99.90;;;;;;4988226;28;20031;-84
2022/05/03 02:46:46;;;;;;;20.40;12.80;;;6.30;99.90;;;;;;4992694;28;20326;-85
2022/05/03 02:49:18;;;;;;;21.45;13.90;;;6.20;99.90;;;;;;4972773;28;20034;-85
2022/05/03 02:52:25;;;;;;;24.88;15.63;;;6.20;99.90;;;;;;4985157;28;20393;-85
2022/05/03 02:55:16;;;;;;;23.55;14.15;;;6.20;99.90;;;;;;4960903;28;20029;-84
2022/05/03 02:58:04;;;;;;;27.30;17.55;;;6.20;99.90;;;;;;4990446;28;20089;-84
2022/05/03 03:03:39;;;;;;;;;;;6.30;99.90;;;;;;5006047;28;20097;-85
2022/05/03 03:06:05;;;;;;;24.63;15.65;;;6.30;99.90;;;;;;4994216;28;20044;-85
2022/05/03 03:08:44;;;;;;;27.27;16.45;;;6.30;99.90;;;;;;4979476;28;20045;-85
2022/05/03 03:11:28;;;;;;;29.00;18.35;;;6.30;99.90;;;;;;4974309;28;20023;-85
2022/05/03 03:14:02;;;;;;;29.90;17.70;;;6.30;99.90;;;;;;4986715;28;20022;-85
2022/05/03 03:16:33;;;;;;;32.45;19.30;;;6.30;99.90;;;;;;5011566;28;20647;-84
2022/05/03 03:19:13;;;;;;;33.00;19.52;;;6.30;99.90;;;;;;4992149;28;20045;-85
2022/05/03 03:21:39;;;;;;;31.58;18.67;;;6.40;99.90;;;;;;4988165;28;20049;-85
2022/05/03 03:24:10;;;;;;;40.70;22.73;;;6.40;99.90;;;;;;5012715;28;20022;-85
2022/05/03 03:26:37;;;;;;;40.33;21.80;;;6.30;99.90;;;;;;4984149;28;20037;-85
2022/05/03 03:29:07;;;;;;;36.15;20.85;;;6.40;99.90;;;;;;4956901;28;20072;-85
2022/05/03 03:31:35;;;;;;;41.75;21.55;;;6.40;99.90;;;;;;4996568;28;20117;-85
2022/05/03 03:34:01;;;;;;;35.75;20.17;;;6.40;99.90;;;;;;4993430;28;20109;-85
2022/05/03 03:36:30;;;;;;;36.30;20.30;;;6.30;99.90;;;;;;4975994;28;20114;-84
2022/05/03 03:38:55;;;;;;;37.05;20.77;;;6.30;99.90;;;;;;4988386;28;20058;-85
2022/05/03 03:41:21;;;;;;;35.22;21.17;;;6.30;99.90;;;;;;4991726;28;20096;-84
2022/05/03 03:43:47;;;;;;;30.42;18.15;;;6.20;99.90;;;;;;4982279;28;20031;-84
2022/05/03 03:46:12;;;;;;;31.45;20.20;;;6.20;99.90;;;;;;4943192;28;20866;-84
2022/05/03 03:48:39;;;;;;;29.05;16.55;;;6.10;99.90;;;;;;4962596;28;20440;-85
2022/05/03 03:51:05;;;;;;;29.70;19.00;;;6.00;99.90;;;;;;4998563;28;20084;-85
2022/05/03 03:53:32;;;;;;;37.97;21.52;;;6.00;99.90;;;;;;4997777;28;20081;-84
2022/05/03 03:55:59;;;;;;;34.53;19.77;;;5.70;99.90;;;;;;4997989;28;20065;-85
2022/05/03 03:58:25;;;;;;;36.35;22.02;;;5.70;99.90;;;;;;4976240;28;20077;-85
2022/05/03 04:00:51;;;;;;;33.05;19.17;;;5.60;99.90;;;;;;4990548;28;20133;-85
2022/05/03 04:03:18;;;;;;;34.83;20.40;;;5.60;99.90;;;;;;5011004;28;20030;-84
2022/05/03 04:05:44;;;;;;;32.35;18.35;;;5.70;99.90;;;;;;5000459;28;20193;-85
2022/05/03 04:08:10;;;;;;;30.08;17.38;;;5.60;99.90;;;;;;5008066;28;20177;-85
2022/05/03 04:10:35;;;;;;;28.55;18.23;;;5.70;99.90;;;;;;4977718;28;20069;-85
2022/05/03 04:13:01;;;;;;;27.65;16.40;;;5.80;99.90;;;;;;4989429;28;20118;-85
2022/05/03 04:15:27;;;;;;;30.95;18.05;;;5.70;99.90;;;;;;4974674;28;20035;-85
2022/05/03 04:17:53;;;;;;;33.33;20.00;;;5.70;99.90;;;;;;4996330;28;20042;-85
2022/05/03 04:20:19;;;;;;;32.60;18.08;;;5.60;99.90;;;;;;4991810;28;20093;-85
2022/05/03 04:22:45;;;;;;;27.38;18.35;;;5.70;99.90;;;;;;4989461;28;20110;-85
2022/05/03 04:25:11;;;;;;;32.00;18.08;;;5.80;99.90;;;;;;4999595;28;20038;-84
2022/05/03 04:27:37;;;;;;;31.20;18.88;;;5.80;99.90;;;;;;4995042;28;20022;-84
2022/05/03 04:30:03;;;;;;;32.35;19.05;;;5.90;99.90;;;;;;4993388;28;20470;-85
2022/05/03 04:32:30;;;;;;;30.38;18.48;;;5.90;99.90;;;;;;4994197;28;20034;-85
2022/05/03 04:34:57;;;;;;;37.85;20.00;;;6.00;99.90;;;;;;4995332;28;20041;-85
2022/05/03 04:37:22;;;;;;;31.25;18.42;;;6.00;99.90;;;;;;4996028;28;21747;-85
2022/05/03 04:39:48;;;;;;;28.67;17.35;;;6.00;99.90;;;;;;4991347;28;20026;-86
2022/05/03 04:42:14;;;;;;;30.27;18.63;;;6.10;99.90;;;;;;4987556;28;20462;-87
2022/05/03 04:44:39;;;;;;;31.08;18.33;;;6.20;99.90;;;;;;4986343;28;20246;-85
2022/05/03 04:47:06;;;;;;;31.63;18.67;;;6.20;99.90;;;;;;5002541;28;20026;-85
2022/05/03 04:49:31;;;;;;;30.50;19.55;;;6.20;99.90;;;;;;4992179;28;20030;-85
2022/05/03 04:51:57;;;;;;;28.40;17.60;;;6.30;99.90;;;;;;4980284;28;20030;-85
2022/05/03 04:54:24;;;;;;;28.35;17.00;;;6.40;99.90;;;;;;4999277;28;20023;-85
2022/05/03 04:56:57;;;;;;;25.17;16.38;;;6.50;99.90;;;;;;4975462;28;20031;-85
2022/05/03 04:59:22;;;;;;;31.80;19.02;;;6.60;99.90;;;;;;4980888;28;20466;-85
2022/05/03 05:01:48;;;;;;;30.25;18.65;;;6.70;99.90;;;;;;4943707;28;20082;-85
2022/05/03 05:04:15;;;;;;;32.17;18.98;;;6.80;99.90;;;;;;4973288;28;20023;-85
2022/05/03 05:06:41;;;;;;;33.45;19.75;;;6.90;99.90;;;;;;4958599;28;20076;-85
2022/05/03 05:09:09;;;;;;;36.55;21.05;;;6.90;99.90;;;;;;4983948;28;20069;-85
2022/05/03 05:11:35;;;;;;;36.33;22.00;;;7.10;99.90;;;;;;4977286;28;20497;-86
2022/05/03 05:14:00;;;;;;;32.88;20.10;;;7.20;99.90;;;;;;4973519;28;20027;-86
2022/05/03 05:16:26;;;;;;;39.15;20.30;;;7.30;99.90;;;;;;4965733;28;20054;-85
2022/05/03 05:18:52;;;;;;;35.03;20.40;;;7.50;99.90;;;;;;4977509;28;20415;-85
2022/05/03 05:21:18;;;;;;;34.25;19.95;;;7.70;99.90;;;;;;4977703;28;20108;-87
2022/05/03 05:23:43;;;;;;;39.25;24.23;;;7.80;99.90;;;;;;4966995;28;20154;-87
2022/05/03 05:26:09;;;;;;;34.90;22.88;;;7.70;99.90;;;;;;4980203;28;20462;-87
2022/05/03 05:28:34;;;;;;;37.67;24.38;;;7.80;99.90;;;;;;4982997;28;20038;-87
2022/05/03 05:31:00;;;;;;;42.03;24.55;;;7.90;99.90;;;;;;4962920;28;20039;-87
2022/05/03 05:33:26;;;;;;;33.80;22.42;;;8.00;99.90;;;;;;4969497;28;20039;-87
2022/05/03 05:35:52;;;;;;;37.38;23.05;;;8.10;99.90;;;;;;4936582;28;20054;-86
2022/05/03 05:38:18;;;;;;;40.40;23.67;;;8.10;99.90;;;;;;4954547;28;20459;-86
2022/05/03 05:40:46;;;;;;;40.92;23.88;;;8.10;99.90;;;;;;4971812;28;20772;-86
2022/05/03 05:43:12;;;;;;;40.63;23.95;;;8.10;99.90;;;;;;4955413;28;20397;-86
2022/05/03 05:45:38;;;;;;;40.60;22.17;;;8.30;99.90;;;;;;4971342;28;20126;-86
2022/05/03 05:48:04;;;;;;;37.25;22.15;;;8.50;99.90;;;;;;4971948;28;20035;-86
2022/05/03 05:50:30;;;;;;;35.63;21.55;;;8.60;99.90;;;;;;4978574;28;20071;-87
2022/05/03 05:55:42;;;;;;;34.55;20.45;;;8.80;99.90;;;;;;4966966;28;20068;-84
2022/05/03 05:58:09;;;;;;;42.97;23.85;;;9.00;99.90;;;;;;4960310;28;20045;-84
2022/05/03 06:00:34;;;;;;;39.58;25.58;;;9.10;99.90;;;;;;4971967;28;20114;-86
2022/05/03 06:03:01;;;;;;;38.92;24.70;;;9.10;99.90;;;;;;4973481;28;20119;-84
2022/05/03 06:05:27;;;;;;;43.33;24.40;;;9.20;99.90;;;;;;4971495;28;20018;-84
2022/05/03 06:07:53;;;;;;;35.92;22.27;;;9.40;99.90;;;;;;4939614;28;20031;-84
2022/05/03 06:10:20;;;;;;;36.05;23.88;;;9.60;99.90;;;;;;4955158;28;20023;-84
2022/05/03 06:12:47;;;;;;;34.88;21.92;;;9.60;99.90;;;;;;4972510;28;20045;-84
2022/05/03 06:15:13;;;;;;;36.38;21.48;;;9.70;99.90;;;;;;4955091;28;20467;-86
2022/05/03 06:17:40;;;;;;;38.50;23.67;;;9.90;99.90;;;;;;4973260;28;20031;-83
2022/05/03 06:20:10;;;;;;;40.67;23.30;;;9.90;99.90;;;;;;4972334;28;20027;-84
2022/05/03 06:22:35;;;;;;;40.05;23.83;;;10.10;99.90;;;;;;4971819;28;20023;-84
2022/05/03 06:25:03;;;;;;;37.67;23.60;;;10.20;99.90;;;;;;4955969;28;20050;-84
2022/05/03 06:27:29;;;;;;;41.33;23.95;;;10.20;99.90;;;;;;4972710;28;20518;-84
2022/05/03 06:29:54;;;;;;;41.03;24.65;;;10.30;99.90;;;;;;4954667;28;20039;-85
2022/05/03 06:32:20;;;;;;;36.30;22.05;;;10.30;99.90;;;;;;4970569;28;20035;-85
2022/05/03 06:34:45;;;;;;;44.53;23.55;;;10.30;99.90;;;;;;4965694;28;20035;-85
2022/05/03 06:37:19;;;;;;;38.63;23.75;;;10.30;99.90;;;;;;4970324;28;20097;-84
2022/05/03 06:39:45;;;;;;;46.75;26.75;;;10.40;99.90;;;;;;4954578;28;20058;-85
2022/05/03 06:42:10;;;;;;;46.22;23.50;;;10.40;99.90;;;;;;4953253;28;20070;-84
2022/05/03 06:44:37;;;;;;;43.72;23.88;;;10.60;99.90;;;;;;4965484;28;20062;-85
2022/05/03 06:47:03;;;;;;;38.65;21.67;;;10.50;99.90;;;;;;4952416;28;20034;-85
2022/05/03 06:49:29;;;;;;;41.33;23.17;;;10.70;99.90;;;;;;4953235;28;20130;-85
2022/05/03 06:51:55;;;;;;;39.35;21.73;;;10.80;99.90;;;;;;4946538;28;20122;-86
2022/05/03 06:54:20;;;;;;;36.25;21.65;;;10.90;99.90;;;;;;4973278;28;20057;-85
2022/05/03 06:56:46;;;;;;;44.08;25.02;;;11.10;99.90;;;;;;4951861;28;20039;-85
2022/05/03 06:59:12;;;;;;;43.10;24.55;;;11.10;99.90;;;;;;4935061;29;20505;-85
2022/05/03 07:01:37;;;;;;;39.30;23.67;;;11.10;99.90;;;;;;4985718;28;20035;-85
2022/05/03 07:04:03;;;;;;;42.08;23.25;;;11.30;99.90;;;;;;4970701;28;20474;-86
2022/05/03 07:06:28;;;;;;;42.13;22.90;;;11.50;99.90;;;;;;4969658;28;20054;-87
2022/05/03 07:08:54;;;;;;;39.75;22.55;;;11.60;99.90;;;;;;4963611;28;20037;-86
2022/05/03 07:11:20;;;;;;;41.97;23.38;;;11.80;99.90;;;;;;4970285;28;20042;-86
2022/05/03 07:13:48;;;;;;;44.58;22.77;;;12.10;99.90;;;;;;4971858;28;20113;-86
2022/05/03 07:16:13;;;;;;;41.00;24.30;;;11.90;99.90;;;;;;4964205;28;20034;-86
2022/05/03 07:24:08;;;;;;;38.13;21.92;;;12.40;99.90;;;;;;4969869;28;20037;-86
2022/05/03 07:26:33;;;;;;;38.95;22.17;;;12.60;99.90;;;;;;4969539;28;20310;-86
2022/05/03 07:28:59;;;;;;;46.33;25.05;;;12.50;99.90;;;;;;4968169;28;20030;-86
2022/05/03 07:31:25;;;;;;;45.95;23.80;;;12.60;99.90;;;;;;4968570;28;20042;-86
2022/05/03 07:33:50;;;;;;;39.25;22.65;;;12.80;99.90;;;;;;4969473;28;20041;-85
2022/05/03 07:36:19;;;;;;;44.85;23.85;;;13.00;99.90;;;;;;4972788;28;20029;-86
2022/05/03 07:38:45;;;;;;;37.95;22.05;;;13.00;99.90;;;;;;4977558;28;20073;-85
2022/05/03 07:41:12;;;;;;;41.45;20.75;;;13.30;99.90;;;;;;4960772;28;20467;-86
2022/05/03 07:43:38;;;;;;;40.05;21.48;;;13.50;99.90;;;;;;4972764;28;20074;-86
2022/05/03 07:46:03;;;;;;;37.40;19.60;;;13.60;99.90;;;;;;4966615;28;20050;-86
2022/05/03 07:48:29;;;;;;;35.05;20.40;;;13.80;99.90;;;;;;4981212;28;20069;-86
2022/05/03 07:50:55;;;;;;;33.95;20.00;;;13.80;99.90;;;;;;4983591;28;20043;-88
2022/05/03 07:53:20;;;;;;;37.38;20.10;;;13.70;99.90;;;;;;4977800;28;20065;-85
2022/05/03 07:55:47;;;;;;;40.70;20.27;;;13.80;99.90;;;;;;4969268;28;20027;-85
2022/05/03 07:58:14;;;;;;;40.03;22.02;;;14.00;99.90;;;;;;4960016;28;20085;-86
2022/05/03 08:00:40;;;;;;;35.72;19.63;;;14.10;99.90;;;;;;4972548;28;20649;-85
2022/05/03 08:03:06;;;;;;;33.28;19.17;;;14.20;99.90;;;;;;4973903;28;20094;-85
2022/05/03 08:05:32;;;;;;;39.92;20.58;;;14.20;99.90;;;;;;4939861;28;20080;-85
2022/05/03 08:07:57;;;;;;;32.03;18.05;;;14.30;99.90;;;;;;4971455;28;20105;-84
2022/05/03 08:10:23;;;;;;;38.60;20.70;;;14.40;99.90;;;;;;4973472;28;20022;-85
2022/05/03 08:12:52;;;;;;;32.60;20.48;;;14.60;99.90;;;;;;4967139;28;20022;-84
2022/05/03 08:15:22;;;;;;;38.45;20.38;;;14.60;99.90;;;;;;4973798;28;20459;-84
2022/05/03 08:17:48;;;;;;;42.95;21.98;;;14.70;99.90;;;;;;4973579;28;20023;-85
2022/05/03 08:20:15;;;;;;;35.70;19.85;;;14.70;99.90;;;;;;4974969;28;20034;-84
2022/05/03 08:22:41;;;;;;;34.58;19.58;;;15.00;99.90;;;;;;4974962;28;20031;-85
2022/05/03 08:25:07;;;;;;;41.22;21.92;;;15.10;99.90;;;;;;4974391;28;20038;-85
2022/05/03 08:27:36;;;;;;;43.88;24.23;;;15.40;99.90;;;;;;4971855;28;20114;-84
2022/05/03 08:30:03;;;;;;;41.40;21.95;;;15.30;99.90;;;;;;4971597;28;20026;-85
2022/05/03 08:32:28;;;;;;;41.40;23.45;;;15.30;99.90;;;;;;4990811;28;20197;-84
2022/05/03 08:34:54;;;;;;;42.20;21.30;;;15.50;99.90;;;;;;4991587;28;20030;-86
2022/05/03 08:42:48;;;;;;;41.40;22.08;;;15.90;99.90;;;;;;4990830;28;20520;-86
2022/05/03 08:45:14;;;;;;;37.58;21.45;;;16.00;98.90;;;;;;4982953;28;20042;-86
2022/05/03 08:47:41;;;;;;;37.80;21.67;;;16.10;99.90;;;;;;4990507;28;20034;-86
2022/05/03 08:50:08;;;;;;;42.22;23.08;;;15.90;98.10;;;;;;4991613;28;20037;-86
2022/05/03 08:52:48;;;;;;;43.92;21.13;;;16.10;99.90;;;;;;4990041;28;20023;-86
2022/05/03 08:55:14;;;;;;;33.55;19.58;;;15.70;98.50;;;;;;4989229;28;20026;-87
2022/05/03 08:57:44;;;;;;;30.45;17.67;;;16.10;97.60;;;;;;4968060;28;20030;-87
2022/05/03 09:00:12;;;;;;;35.63;19.88;;;16.50;96.60;;;;;;4983910;28;20038;-86
2022/05/03 09:02:46;;;;;;;37.85;20.00;;;17.00;94.60;;;;;;4965787;28;20520;-85
2022/05/03 09:05:13;;;;;;;25.23;15.88;;;16.90;98.30;;;;;;4980029;28;20047;-86
2022/05/03 09:07:49;;;;;;;29.98;18.98;;;17.10;86.30;;;;;;4993977;28;20114;-88
2022/05/03 09:10:24;;;;;;;29.23;17.70;;;16.90;87.60;;;;;;4991000;28;20056;-86
2022/05/03 09:12:50;;;;;;;37.58;22.88;;;17.20;86.30;;;;;;4981859;28;20102;-86
2022/05/03 09:15:31;;;;;;;33.38;18.17;;;17.50;87.70;;;;;;4984287;28;20058;-89
2022/05/03 09:17:56;;;;;;;35.55;20.27;;;17.60;84.50;;;;;;4985417;28;20034;-86
2022/05/03 09:26:29;;;;;;;33.60;19.33;;;17.60;75.90;;;;;;4982078;28;20451;-87
2022/05/03 09:29:05;;;;;;;35.83;19.83;;;17.50;82.80;;;;;;4973299;28;20034;-87
2022/05/03 09:31:33;;;;;;;30.38;18.70;;;17.90;80.70;;;;;;4990111;28;20038;-87
2022/05/03 09:34:17;;;;;;;30.30;18.83;;;17.50;83.30;;;;;;4997138;28;20038;-87
2022/05/03 09:36:45;;;;;;;28.17;16.90;;;17.80;86.10;;;;;;4990686;28;20062;-87
2022/05/03 09:39:24;;;;;;;31.02;16.20;;;17.80;82.50;;;;;;4972631;28;20038;-87
2022/05/03 09:42:11;;;;;;;24.67;15.10;;;18.20;73.80;;;;;;4991525;28;20026;-86
2022/05/03 09:44:58;;;;;;;22.35;14.07;;;17.80;72.10;;;;;;4985734;28;20050;-87
2022/05/03 09:47:26;;;;;;;27.92;16.95;;;18.00;69.30;;;;;;4991296;28;20014;-87
2022/05/03 09:49:52;;;;;;;35.72;20.85;;;18.40;72.00;;;;;;4975692;28;20565;-87
2022/05/03 09:52:30;;;;;;;28.55;17.67;;;18.70;73.50;;;;;;4991359;28;20118;-87
2022/05/03 09:55:07;;;;;;;29.95;18.67;;;18.70;69.40;;;;;;4992398;28;20054;-87
2022/05/03 09:57:38;;;;;;;22.52;14.45;;;18.80;68.10;;;;;;4990282;28;20034;-87
2022/05/03 10:00:06;;;;;;;23.92;13.93;;;18.80;67.20;;;;;;4988060;28;20030;-86
2022/05/03 10:02:32;;;;;;;17.75;9.95;;;18.90;62.90;;;;;;4984602;28;20034;-87
2022/05/03 10:04:58;;;;;;;25.25;16.23;;;18.30;59.80;;;;;;4991318;28;20094;-87
2022/05/03 10:07:25;;;;;;;23.50;15.95;;;18.80;60.40;;;;;;4982494;28;20034;-89
2022/05/03 10:09:51;;;;;;;22.98;12.85;;;19.40;65.10;;;;;;4978771;28;20034;-90
2022/05/03 10:12:18;;;;;;;22.27;14.23;;;19.30;60.00;;;;;;4972005;28;20031;-88
2022/05/03 10:14:46;;;;;;;22.25;13.57;;;19.10;59.50;;;;;;4983668;28;20062;-88
2022/05/03 10:23:04;;;;;;;14.15;9.15;;;20.00;57.10;;;;;;4982626;28;20121;-87
2022/05/03 10:26:09;;;;;;;20.73;12.82;;;20.40;62.00;;;;;;4993152;28;20377;-88
2022/05/03 10:29:09;;;;;;;15.07;10.52;;;20.00;54.80;;;;;;4982475;28;20057;-87
2022/05/03 10:31:55;;;;;;;18.75;11.57;;;19.60;54.40;;;;;;4977199;28;20041;-91
2022/05/03 10:34:46;;;;;;;20.45;11.80;;;20.40;53.30;;;;;;4990409;28;20067;-91
2022/05/03 10:37:13;;;;;;;15.10;10.90;;;20.30;54.00;;;;;;4986702;28;20462;-89
2022/05/03 10:39:56;;;;;;;15.40;10.70;;;20.40;54.70;;;;;;5003235;28;20027;-90
2022/05/03 10:42:31;;;;;;;13.50;9.70;;;20.70;53.00;;;;;;4988340;28;20026;-89
2022/05/03 10:44:57;;;;;;;14.18;9.60;;;20.80;52.60;;;;;;4979042;28;20549;-90
2022/05/03 10:47:38;;;;;;;12.68;9.45;;;20.80;56.30;;;;;;4988473;28;20022;-91
2022/05/03 10:50:11;;;;;;;15.00;10.20;;;21.60;50.00;;;;;;4987735;28;20440;-91
2022/05/03 10:52:36;;;;;;;14.20;9.38;;;21.70;49.50;;;;;;4988143;28;20041;-91
2022/05/03 10:55:09;;;;;;;14.27;8.88;;;22.50;45.60;;;;;;4988679;28;20046;-91
2022/05/03 10:58:12;;;;;;;13.88;9.20;;;22.00;46.40;;;;;;4985745;28;20046;-91
2022/05/03 11:00:59;;;;;;;14.13;9.77;;;22.70;45.60;;;;;;4999453;28;20215;-91
2022/05/03 11:03:25;;;;;;;11.98;9.52;;;23.10;45.70;;;;;;4990486;28;20120;-89
2022/05/03 11:06:19;;;;;;;9.70;7.82;;;23.50;43.30;;;;;;4995176;28;20031;-90
2022/05/03 11:11:44;;;;;;;13.35;8.63;;;23.10;41.90;;;;;;4991911;28;20022;-90
2022/05/03 11:14:17;;;;;;;11.27;8.27;;;23.70;40.10;;;;;;5010211;28;20516;-89
2022/05/03 11:16:47;;;;;;;11.63;8.85;;;23.40;43.40;;;;;;5010495;28;20027;-90
2022/05/03 11:19:23;;;;;;;;;;;23.70;44.40;;;;;;4995508;28;20026;-90
2022/05/03 11:21:50;;;;;;;10.52;7.78;;;22.60;42.10;;;;;;4989115;28;20013;-89
2022/05/03 11:24:21;;;;;;;11.68;7.65;;;21.80;43.30;;;;;;4993074;28;20082;-90
2022/05/03 11:27:01;;;;;;;9.23;7.03;;;21.50;46.20;;;;;;4993408;28;20037;-89
2022/05/03 11:29:28;;;;;;;13.05;7.80;;;20.80;46.70;;;;;;4992197;28;20065;-90
2022/05/03 11:31:55;;;;;;;8.45;6.88;;;20.00;47.90;;;;;;4993839;28;20035;-90
2022/05/03 11:34:21;;;;;;;10.93;7.82;;;20.00;48.30;;;;;;5009741;28;20110;-90
2022/05/03 11:36:49;;;;;;;11.10;6.75;;;20.20;47.80;;;;;;5009022;28;20077;-90
2022/05/03 11:39:19;;;;;;;10.30;5.78;;;20.90;47.50;;;;;;4981840;28;20031;-90
2022/05/03 11:41:46;;;;;;;11.38;6.65;;;22.70;43.00;;;;;;4992050;28;20030;-90
2022/05/03 11:44:12;;;;;;;10.75;7.88;;;24.20;39.90;;;;;;4988438;28;20030;-90
2022/05/03 11:46:40;;;;;;;15.07;7.60;;;25.00;36.90;;;;;;4982829;28;20042;-90
2022/05/03 11:49:08;;;;;;;9.57;6.63;;;25.80;35.20;;;;;;4990775;28;20417;-90
2022/05/03 11:57:22;;;;;;;10.52;7.13;;;25.00;36.70;;;;;;4990930;28;20045;-88
2022/05/03 11:59:55;;;;;;;11.75;7.20;;;23.80;37.80;;;;;;5007733;28;20030;-88
2022/05/03 12:02:38;;;;;;;8.43;6.57;;;23.10;40.30;;;;;;5008457;28;20030;-88
2022/05/03 12:05:11;;;;;;;8.63;6.15;;;22.50;41.20;;;;;;4992927;28;20101;-88
2022/05/03 12:07:50;;;;;;;9.65;6.15;;;23.50;38.70;;;;;;4994003;28;20023;-88
2022/05/03 12:10:33;;;;;;;7.70;6.43;;;23.70;37.90;;;;;;4993328;28;21460;-88
2022/05/03 12:13:29;;;;;;;8.18;5.22;;;24.70;36.50;;;;;;4991400;28;20027;-88
2022/05/03 12:15:57;;;;;;;7.95;6.05;;;25.80;34.20;;;;;;4983910;28;20045;-89
2022/05/03 12:18:29;;;;;;;8.07;5.47;;;26.40;31.80;;;;;;4991134;28;20026;-89
2022/05/03 12:20:58;;;;;;;7.38;5.80;;;27.20;31.60;;;;;;4978409;28;20026;-89
2022/05/03 12:23:58;;;;;;;8.30;6.45;;;27.70;29.90;;;;;;4982409;28;20027;-89
2022/05/03 12:26:33;;;;;;;8.27;5.78;;;28.10;29.50;;;;;;4990294;28;20489;-90
2022/05/03 12:29:00;;;;;;;7.82;5.57;;;27.60;33.90;;;;;;4987895;28;20061;-90
2022/05/03 12:31:35;;;;;;;8.25;5.43;;;27.50;30.00;;;;;;4988927;28;20045;-90
2022/05/03 12:34:11;;;;;;;8.10;5.97;;;28.60;29.00;;;;;;4985945;28;20076;-90
2022/05/03 12:36:44;;;;;;;8.07;6.60;;;28.30;28.50;;;;;;4990116;28;20165;-89
2022/05/03 12:39:14;;;;;;;9.63;6.97;;;25.90;33.70;;;;;;5004952;28;20062;-89
2022/05/03 12:41:41;;;;;;;10.75;7.57;;;24.90;35.50;;;;;;5002191;28;20030;-89
2022/05/03 12:44:09;;;;;;;12.00;7.68;;;23.60;37.10;;;;;;5002224;28;20081;-89
2022/05/03 12:46:36;;;;;;;8.05;6.63;;;22.60;39.50;;;;;;5005062;28;20034;-89
2022/05/03 12:49:04;;;;;;;10.75;7.57;;;21.70;42.80;;;;;;5002256;28;20465;-90
2022/05/03 12:51:32;;;;;;;8.80;6.50;;;21.10;42.70;;;;;;4989951;28;20038;-89
2022/05/03 12:54:04;;;;;;;10.88;6.60;;;21.00;45.50;;;;;;4987674;28;20029;-89
2022/05/03 12:59:14;;;;;;;8.95;5.63;;;21.40;40.80;;;;;;4989906;28;20042;-89
2022/05/03 13:01:41;;;;;;;9.75;5.50;;;21.70;41.90;;;;;;4994394;28;20371;-90
2022/05/03 13:04:09;;;;;;;9.02;6.05;;;21.50;42.70;;;;;;4991287;28;20038;-90
2022/05/03 13:06:35;;;;;;;6.55;5.25;;;21.50;41.10;;;;;;4994877;28;20027;-91
2022/05/03 13:09:01;;;;;;;9.88;6.18;;;22.10;40.20;;;;;;4993372;28;20033;-88
2022/05/03 13:11:27;;;;;;;7.57;6.07;;;23.40;38.90;;;;;;4971125;28;20035;-88
2022/05/03 13:13:52;;;;;;;8.93;6.10;;;25.60;33.50;;;;;;5000615;28;20058;-90
2022/05/03 13:16:18;;;;;;;8.48;5.43;;;26.80;30.90;;;;;;4992123;28;20034;-89
2022/05/03 13:18:44;;;;;;;9.05;5.05;;;28.10;29.60;;;;;;4989032;28;20488;-89
2022/05/03 13:21:10;;;;;;;11.02;6.55;;;28.50;29.00;;;;;;4987670;28;20096;-90
2022/05/03 13:23:35;;;;;;;7.70;6.10;;;28.30;28.60;;;;;;4988816;28;20034;-90
2022/05/03 13:26:01;;;;;;;9.00;6.53;;;29.10;28.80;;;;;;5015666;28;20030;-90
2022/05/03 13:28:28;;;;;;;9.20;5.75;;;29.60;28.70;;;;;;5006473;28;20038;-88
2022/05/03 13:30:55;;;;;;;7.25;6.40;;;29.60;28.30;;;;;;5004402;28;20462;-90
2022/05/03 13:33:20;;;;;;;9.27;5.20;;;29.60;28.30;;;;;;4985133;28;20061;-90
2022/05/03 13:41:15;;;;;;;7.60;5.43;;;29.00;30.00;;;;;;4989480;28;20104;-91
2022/05/03 13:43:40;;;;;;;8.85;6.07;;;29.00;28.90;;;;;;4976374;28;20485;-88
2022/05/03 13:46:06;;;;;;;10.38;6.80;;;27.40;30.20;;;;;;4991139;28;20042;-91
2022/05/03 13:48:32;;;;;;;9.60;6.53;;;26.50;31.70;;;;;;4989986;28;20038;-90
2022/05/03 13:50:57;;;;;;;10.00;6.75;;;24.80;35.10;;;;;;4987788;28;20023;-88